Time;durP1;ratioP1;P1;durP2;ratioP2;P2;SDS_P1;SDS_P2;PMS_P1;PMS_P2;Temp;Humidity;BMP_temperature;BMP_pressure;BME280_temperature;BME280_humidity;BME280_pressure;Samples;Min_cycle;Max_cycle;Signal;HPM_P1;HPM_P2
2022/04/06 00:01:01;;;;;;;13.50;12.43;;;9.30;1.00;;;;;;6257727;28;20343;-57
2022/04/06 00:04:05;;;;;;;13.93;12.67;;;9.40;1.00;;;;;;6258946;28;20293;-56
2022/04/06 00:07:07;;;;;;;13.13;12.13;;;9.30;1.00;;;;;;6259761;28;20352;-56
2022/04/06 00:10:12;;;;;;;12.70;11.70;;;9.30;1.00;;;;;;6259790;28;20257;-56
2022/04/06 00:13:17;;;;;;;13.77;12.67;;;9.40;1.00;;;;;;6260633;28;20255;-56
2022/04/06 00:16:20;;;;;;;12.80;11.80;;;9.40;1.00;;;;;;6264674;28;20635;-56
2022/04/06 00:19:23;;;;;;;12.03;11.10;;;9.40;1.00;;;;;;6261641;28;20238;-55
2022/04/06 00:22:25;;;;;;;12.27;11.13;;;9.40;1.00;;;;;;6260948;28;20240;-56
2022/04/06 00:25:28;;;;;;;12.40;11.37;;;9.50;1.00;;;;;;6284553;28;20557;-56
2022/04/06 00:28:32;;;;;;;12.17;11.27;;;9.50;1.00;;;;;;6289565;28;20277;-56
2022/04/06 00:31:35;;;;;;;11.63;10.73;;;9.40;1.00;;;;;;6280328;28;20825;-56
2022/04/06 00:37:59;;;;;;;11.97;11.00;;;9.40;1.00;;;;;;6285416;28;20252;-59
2022/04/06 00:41:02;;;;;;;11.00;10.10;;;9.40;1.00;;;;;;6278912;28;20276;-57
2022/04/06 00:44:14;;;;;;;11.73;10.73;;;9.40;1.00;;;;;;6279590;28;20241;-58
2022/04/06 00:47:16;;;;;;;11.43;10.63;;;9.40;1.00;;;;;;6286502;28;20236;-55
2022/04/06 00:50:21;;;;;;;13.30;12.30;;;9.40;1.00;;;;;;6289104;28;20259;-56
2022/04/06 00:53:24;;;;;;;13.17;12.17;;;9.40;1.00;;;;;;6282895;28;20343;-57
2022/04/06 00:56:28;;;;;;;14.13;12.80;;;9.40;1.00;;;;;;6281246;28;20743;-56
2022/04/06 00:59:33;;;;;;;14.47;13.27;;;9.50;1.00;;;;;;6281206;28;20498;-56
2022/04/06 01:02:35;;;;;;;14.70;13.43;;;9.50;1.00;;;;;;6281131;28;20237;-56
2022/04/06 01:05:38;;;;;;;14.20;13.10;;;9.40;1.00;;;;;;6289199;28;20403;-56
2022/04/06 01:08:41;;;;;;;14.27;13.07;;;9.50;1.00;;;;;;6282574;28;20233;-56
2022/04/06 01:11:46;;;;;;;14.10;12.87;;;9.50;1.00;;;;;;6282053;28;20225;-56
2022/04/06 01:14:50;;;;;;;14.90;13.60;;;9.50;1.00;;;;;;6280488;28;20247;-57
2022/04/06 01:17:53;;;;;;;14.87;13.67;;;9.50;1.00;;;;;;6282234;28;20240;-57
2022/04/06 01:20:56;;;;;;;15.40;14.10;;;9.50;1.00;;;;;;6280664;28;20229;-57
2022/04/06 01:24:00;;;;;;;15.23;13.87;;;9.40;1.00;;;;;;6282432;28;20378;-57
2022/04/06 01:27:03;;;;;;;15.57;13.77;;;9.50;1.00;;;;;;6283826;28;20313;-56
2022/04/06 01:30:07;;;;;;;14.57;13.17;;;9.50;1.00;;;;;;6283867;28;20234;-57
2022/04/06 01:33:10;;;;;;;14.87;13.67;;;9.50;1.00;;;;;;6281993;28;20287;-56
2022/04/06 01:36:13;;;;;;;15.03;13.80;;;9.50;1.00;;;;;;6282276;28;20233;-56
2022/04/06 01:39:17;;;;;;;14.53;13.33;;;9.60;1.00;;;;;;6281065;28;20312;-57
2022/04/06 01:42:21;;;;;;;14.53;13.20;;;9.60;1.00;;;;;;6279102;28;20522;-57
2022/04/06 01:45:24;;;;;;;14.87;13.57;;;9.50;1.00;;;;;;6268862;28;20406;-56
2022/04/06 01:48:27;;;;;;;15.00;13.67;;;9.60;1.00;;;;;;6286454;28;20620;-56
2022/04/06 01:54:52;;;;;;;15.93;14.17;;;9.50;1.00;;;;;;6278706;28;20290;-57
2022/04/06 01:57:56;;;;;;;16.43;15.00;;;9.50;1.00;;;;;;6279768;28;20288;-57
2022/04/06 02:00:58;;;;;;;15.93;14.43;;;9.50;1.00;;;;;;6280324;28;20245;-57
2022/04/06 02:04:06;;;;;;;16.23;14.83;;;9.60;1.00;;;;;;6280132;28;20708;-58
2022/04/06 02:07:25;;;;;;;16.03;14.73;;;9.60;1.00;;;;;;6286297;28;20352;-57
2022/04/06 02:10:29;;;;;;;16.50;15.07;;;9.60;1.00;;;;;;6286616;28;20240;-57
2022/04/06 02:13:33;;;;;;;15.67;14.37;;;9.50;1.00;;;;;;6282948;28;20233;-58
2022/04/06 02:16:37;;;;;;;15.93;14.43;;;9.50;1.00;;;;;;6276875;28;20237;-56
2022/04/06 02:19:40;;;;;;;15.60;14.20;;;9.50;1.00;;;;;;6281420;28;20237;-56
2022/04/06 02:22:43;;;;;;;16.43;14.93;;;9.60;1.00;;;;;;6282471;28;20236;-57
2022/04/06 02:25:47;;;;;;;14.90;13.70;;;9.60;1.00;;;;;;6277930;28;20653;-57
2022/04/06 02:28:50;;;;;;;17.03;15.63;;;9.60;1.00;;;;;;6283363;28;20231;-58
2022/04/06 02:31:53;;;;;;;16.33;14.93;;;9.60;1.00;;;;;;6280822;28;20263;-57
2022/04/06 02:34:55;;;;;;;15.40;14.07;;;9.50;1.00;;;;;;6278521;28;20233;-57
2022/04/06 02:37:58;;;;;;;15.73;14.47;;;9.60;1.00;;;;;;6284252;28;20252;-58
2022/04/06 02:41:02;;;;;;;16.33;14.73;;;9.60;1.00;;;;;;6283451;28;20810;-57
2022/04/06 02:44:05;;;;;;;16.23;14.73;;;9.60;1.00;;;;;;6281573;28;20671;-55
2022/04/06 02:47:08;;;;;;;15.50;14.30;;;9.60;1.00;;;;;;6284099;28;20661;-55
2022/04/06 02:50:11;;;;;;;14.87;13.67;;;9.60;1.00;;;;;;6281969;28;20287;-59
2022/04/06 02:53:14;;;;;;;15.53;14.13;;;9.60;1.00;;;;;;6281487;28;20371;-57
2022/04/06 02:56:18;;;;;;;15.83;14.43;;;9.60;1.00;;;;;;6280010;28;20412;-57
2022/04/06 02:59:21;;;;;;;15.93;14.63;;;9.60;1.00;;;;;;6281866;28;20242;-58
2022/04/06 03:02:24;;;;;;;15.70;14.30;;;9.60;1.00;;;;;;6288944;28;20319;-59
2022/04/06 03:05:26;;;;;;;16.73;15.13;;;9.50;1.00;;;;;;6291476;28;20330;-57
2022/04/06 03:08:30;;;;;;;15.73;14.43;;;9.50;1.00;;;;;;6289579;28;20520;-59
2022/04/06 03:11:34;;;;;;;15.20;14.00;;;9.50;1.00;;;;;;6285368;28;20732;-56
2022/04/06 03:14:37;;;;;;;16.40;14.77;;;9.50;1.00;;;;;;6283538;28;20238;-58
2022/04/06 03:17:40;;;;;;;15.03;13.73;;;9.60;1.00;;;;;;6282399;28;20286;-56
2022/04/06 03:20:42;;;;;;;15.00;13.70;;;9.60;1.00;;;;;;6282507;28;20225;-57
2022/04/06 03:23:45;;;;;;;15.30;14.00;;;9.60;1.00;;;;;;6284017;28;20308;-57
2022/04/06 03:26:49;;;;;;;14.10;12.80;;;9.60;1.00;;;;;;6288471;28;20306;-57
2022/04/06 03:29:52;;;;;;;14.60;13.33;;;9.60;1.00;;;;;;6280733;28;20374;-57
2022/04/06 03:32:55;;;;;;;13.47;12.33;;;9.60;1.00;;;;;;6270952;28;20258;-57
2022/04/06 03:35:58;;;;;;;14.20;12.67;;;9.60;1.00;;;;;;6288519;28;20382;-56
2022/04/06 03:39:01;;;;;;;13.33;12.03;;;9.60;1.00;;;;;;6293776;28;20439;-57
2022/04/06 03:42:06;;;;;;;13.03;11.87;;;9.60;1.00;;;;;;6289988;28;20240;-56
2022/04/06 03:45:10;;;;;;;13.20;11.90;;;9.60;1.00;;;;;;6285129;28;20312;-57
2022/04/06 03:48:13;;;;;;;13.33;12.13;;;9.60;1.00;;;;;;6287763;28;20312;-58
2022/04/06 03:51:15;;;;;;;12.83;11.77;;;9.60;1.00;;;;;;6286158;28;20233;-57
2022/04/06 03:54:18;;;;;;;12.73;11.73;;;9.60;1.00;;;;;;6288210;28;20450;-58
2022/04/06 03:57:22;;;;;;;13.50;12.27;;;9.60;1.00;;;;;;6285715;28;20318;-57
2022/04/06 04:00:25;;;;;;;12.90;11.67;;;9.60;1.00;;;;;;6288072;28;20241;-56
2022/04/06 04:03:28;;;;;;;12.90;11.77;;;9.50;1.00;;;;;;6288519;28;20308;-56
2022/04/06 04:06:31;;;;;;;12.20;11.23;;;9.50;1.00;;;;;;6279993;28;20233;-56
2022/04/06 04:09:34;;;;;;;11.90;10.80;;;9.40;1.00;;;;;;6289469;28;20924;-56
2022/04/06 04:12:39;;;;;;;13.00;11.80;;;9.40;1.00;;;;;;6293725;28;20238;-57
2022/04/06 04:15:42;;;;;;;12.27;11.17;;;9.40;1.00;;;;;;6288719;28;20748;-57
2022/04/06 04:18:45;;;;;;;11.97;10.83;;;9.40;1.00;;;;;;6292187;28;20314;-57
2022/04/06 04:21:49;;;;;;;12.30;11.00;;;9.40;1.00;;;;;;6292847;28;20237;-63
2022/04/06 04:24:53;;;;;;;13.97;11.57;;;9.40;1.00;;;;;;6288923;28;20736;-57
2022/04/06 04:27:57;;;;;;;12.13;10.90;;;9.40;1.00;;;;;;6288343;28;20221;-57
2022/04/06 04:31:00;;;;;;;12.70;10.70;;;9.40;1.00;;;;;;6288893;28;20267;-58
2022/04/06 04:34:04;;;;;;;13.50;12.20;;;9.40;1.00;;;;;;6292361;28;20755;-58
2022/04/06 04:37:07;;;;;;;12.30;11.10;;;9.50;1.00;;;;;;6288456;28;20585;-56
2022/04/06 04:40:10;;;;;;;12.97;11.60;;;9.40;1.00;;;;;;6291016;28;20241;-58
2022/04/06 04:43:14;;;;;;;13.47;12.07;;;9.40;1.00;;;;;;6268400;28;20225;-56
2022/04/06 04:46:17;;;;;;;13.00;11.80;;;9.40;1.00;;;;;;6283859;28;20249;-57
2022/04/06 04:49:20;;;;;;;13.87;12.37;;;9.40;1.00;;;;;;6283323;28;20623;-57
2022/04/06 04:52:23;;;;;;;13.90;12.67;;;9.40;1.00;;;;;;6291407;28;20256;-56
2022/04/06 04:55:25;;;;;;;14.60;13.20;;;9.40;1.00;;;;;;6291971;28;20294;-57
2022/04/06 04:58:30;;;;;;;14.90;13.60;;;9.40;1.00;;;;;;6289469;28;20387;-57
2022/04/06 05:01:32;;;;;;;14.07;12.77;;;9.40;1.00;;;;;;6283995;28;20300;-58
2022/04/06 05:04:35;;;;;;;15.10;13.60;;;9.40;1.00;;;;;;6289626;28;20233;-56
2022/04/06 05:07:38;;;;;;;14.23;12.93;;;9.40;1.00;;;;;;6289122;28;20237;-58
2022/04/06 05:10:41;;;;;;;14.33;13.03;;;9.30;1.00;;;;;;6281223;28;20249;-57
2022/04/06 05:13:45;;;;;;;13.43;12.23;;;9.40;1.00;;;;;;6302658;28;20225;-58
2022/04/06 05:16:48;;;;;;;14.77;13.10;;;9.40;1.00;;;;;;6293869;28;20509;-60
2022/04/06 05:19:50;;;;;;;16.87;13.03;;;9.40;1.00;;;;;;6282825;28;20240;-57
2022/04/06 05:22:53;;;;;;;13.60;12.40;;;9.40;1.00;;;;;;6296017;28;20235;-57
2022/04/06 05:25:56;;;;;;;14.23;12.40;;;9.40;1.00;;;;;;6284371;28;20243;-58
2022/04/06 05:29:00;;;;;;;13.77;12.47;;;9.40;1.00;;;;;;6284193;28;20263;-54
2022/04/06 05:32:03;;;;;;;14.23;12.73;;;9.40;1.00;;;;;;6296309;28;20780;-55
2022/04/06 05:35:08;;;;;;;17.27;13.03;;;9.40;1.00;;;;;;6292807;28;20269;-57
2022/04/06 05:38:11;;;;;;;15.63;13.20;;;9.40;1.00;;;;;;6293227;28;20730;-57
2022/04/06 05:41:13;;;;;;;14.50;13.20;;;9.40;1.00;;;;;;6287757;28;20663;-57
2022/04/06 05:44:17;;;;;;;16.63;12.13;;;9.50;1.00;;;;;;6284442;28;20233;-59
2022/04/06 05:47:21;;;;;;;15.23;13.63;;;9.50;1.00;;;;;;6287077;28;20484;-58
2022/04/06 05:50:23;;;;;;;14.90;13.17;;;9.50;1.00;;;;;;6288111;28;20414;-59
2022/04/06 05:53:26;;;;;;;13.20;11.67;;;9.60;1.00;;;;;;6285288;28;20574;-57
2022/04/06 05:56:29;;;;;;;13.60;12.37;;;9.70;1.00;;;;;;6291539;28;20675;-57
2022/04/06 05:59:33;;;;;;;15.70;12.63;;;9.60;1.00;;;;;;6285353;28;20325;-60
2022/04/06 06:02:37;;;;;;;17.33;13.57;;;9.70;1.00;;;;;;6287159;28;20247;-57
2022/04/06 06:05:40;;;;;;;13.97;12.60;;;9.60;1.00;;;;;;6295488;28;20233;-58
2022/04/06 06:08:52;;;;;;;14.33;13.00;;;9.70;1.00;;;;;;6278518;28;20318;-56
2022/04/06 06:11:55;;;;;;;14.13;12.80;;;9.70;1.00;;;;;;6286283;28;20401;-57
2022/04/06 06:15:00;;;;;;;21.73;15.00;;;9.70;1.00;;;;;;6285159;28;20318;-56
2022/04/06 06:18:03;;;;;;;16.67;13.53;;;9.80;1.00;;;;;;6277255;28;20229;-54
2022/04/06 06:21:05;;;;;;;14.70;13.30;;;9.80;1.00;;;;;;6283661;28;20233;-56
2022/04/06 06:24:08;;;;;;;17.47;14.67;;;9.80;1.00;;;;;;6293816;28;20229;-57
2022/04/06 06:27:14;;;;;;;19.43;15.50;;;9.80;1.00;;;;;;6283793;28;20709;-55
2022/04/06 06:30:18;;;;;;;18.93;15.63;;;9.80;1.00;;;;;;6289303;28;20324;-56
2022/04/06 06:33:21;;;;;;;24.50;17.47;;;9.80;1.00;;;;;;6283100;28;20233;-56
2022/04/06 06:36:28;;;;;;;21.97;17.33;;;9.80;1.00;;;;;;6289457;28;20243;-58
2022/04/06 06:39:30;;;;;;;24.83;17.37;;;9.70;1.00;;;;;;6280858;28;21308;-56
2022/04/06 06:42:33;;;;;;;22.23;17.63;;;9.70;1.00;;;;;;6283463;28;20815;-57
2022/04/06 06:45:37;;;;;;;26.17;17.23;;;9.90;1.00;;;;;;6290094;28;20382;-58
2022/04/06 06:48:40;;;;;;;19.07;16.97;;;10.00;1.00;;;;;;6288480;28;20340;-57
2022/04/06 06:51:43;;;;;;;21.13;17.80;;;10.10;1.00;;;;;;6280815;28;20233;-56
2022/04/06 06:54:46;;;;;;;27.83;17.97;;;10.10;1.00;;;;;;6291052;28;20604;-56
2022/04/06 06:57:49;;;;;;;27.10;18.03;;;10.20;1.00;;;;;;6295503;28;20716;-58
2022/04/06 07:00:53;;;;;;;24.00;18.43;;;10.20;1.00;;;;;;6287930;28;20233;-58
2022/04/06 07:03:55;;;;;;;23.03;18.33;;;10.30;1.00;;;;;;6293781;28;20233;-56
2022/04/06 07:06:58;;;;;;;25.17;18.57;;;10.30;1.00;;;;;;6290921;28;20236;-57
2022/04/06 07:10:01;;;;;;;25.20;18.20;;;10.30;1.00;;;;;;6292475;28;20242;-57
2022/04/06 07:13:04;;;;;;;25.33;19.20;;;10.40;1.00;;;;;;6282254;28;20612;-57
2022/04/06 07:16:08;;;;;;;22.63;18.93;;;10.40;1.00;;;;;;6289782;28;20765;-56
2022/04/06 07:19:11;;;;;;;22.90;19.23;;;10.40;1.00;;;;;;6291151;28;20244;-57
2022/04/06 07:22:13;;;;;;;23.90;18.60;;;10.50;1.00;;;;;;6290470;28;20302;-57
2022/04/06 07:25:16;;;;;;;24.47;18.97;;;10.50;1.00;;;;;;6291016;28;20320;-58
2022/04/06 07:28:19;;;;;;;22.63;18.17;;;10.60;1.00;;;;;;6280721;28;20331;-57
2022/04/06 07:31:23;;;;;;;22.30;18.13;;;10.60;1.00;;;;;;6290487;28;20450;-58
2022/04/06 07:34:26;;;;;;;22.40;17.87;;;10.70;1.00;;;;;;6276664;28;20241;-57
2022/04/06 07:37:35;;;;;;;27.50;16.93;;;10.60;1.00;;;;;;6280988;28;20812;-55
2022/04/06 07:40:40;;;;;;;20.53;17.40;;;10.60;1.00;;;;;;6281717;28;20347;-56
2022/04/06 07:43:44;;;;;;;20.93;16.13;;;10.70;1.00;;;;;;6292750;28;20750;-57
2022/04/06 07:46:49;;;;;;;20.23;16.73;;;10.90;1.00;;;;;;6287004;28;20660;-57
2022/04/06 07:49:51;;;;;;;22.13;16.53;;;11.00;1.00;;;;;;6289723;28;20508;-57
2022/04/06 07:52:54;;;;;;;20.40;15.23;;;10.90;1.00;;;;;;6287868;28;20581;-57
2022/04/06 07:55:57;;;;;;;17.00;15.20;;;11.00;1.00;;;;;;6294343;28;20298;-56
2022/04/06 07:58:59;;;;;;;19.57;15.23;;;11.10;1.00;;;;;;6284945;28;20263;-56
2022/04/06 08:02:08;;;;;;;17.27;13.83;;;11.30;1.00;;;;;;6280746;28;20494;-57
2022/04/06 08:05:11;;;;;;;15.53;13.70;;;11.40;1.00;;;;;;6288731;28;20256;-57
2022/04/06 08:08:14;;;;;;;13.63;12.33;;;11.40;1.00;;;;;;6286770;28;20309;-57
2022/04/06 08:11:16;;;;;;;17.00;12.43;;;11.60;1.00;;;;;;6283177;28;20278;-57
2022/04/06 08:14:20;;;;;;;17.50;13.30;;;11.80;1.00;;;;;;6289882;28;20706;-58
2022/04/06 08:17:25;;;;;;;15.60;12.70;;;11.70;1.00;;;;;;6284821;28;20285;-57
2022/04/06 08:20:28;;;;;;;14.70;12.57;;;11.80;1.00;;;;;;6285688;28;20294;-57
2022/04/06 08:23:30;;;;;;;17.67;12.27;;;12.00;1.00;;;;;;6286533;28;20303;-57
2022/04/06 08:26:34;;;;;;;13.60;11.60;;;12.00;1.00;;;;;;6295910;28;20435;-58
2022/04/06 08:29:37;;;;;;;15.90;10.10;;;12.10;1.00;;;;;;6285719;28;20564;-56
2022/04/06 08:32:41;;;;;;;13.87;11.13;;;12.10;1.00;;;;;;6284498;28;20595;-57
2022/04/06 08:35:44;;;;;;;14.73;10.23;;;12.10;1.00;;;;;;6284640;28;20350;-56
2022/04/06 08:38:46;;;;;;;12.73;11.27;;;12.20;1.00;;;;;;6285425;28;20275;-57
2022/04/06 08:41:50;;;;;;;13.17;10.77;;;12.10;1.00;;;;;;6283955;28;20628;-57
2022/04/06 08:44:53;;;;;;;14.27;11.20;;;12.10;1.00;;;;;;6281161;28;20229;-57
2022/04/06 08:48:00;;;;;;;13.83;10.63;;;11.90;1.00;;;;;;6290366;28;20308;-56
2022/04/06 08:51:07;;;;;;;11.80;10.67;;;11.90;1.00;;;;;;6291870;28;20267;-56
2022/04/06 08:54:11;;;;;;;14.07;10.43;;;11.90;1.00;;;;;;6287101;28;20363;-57
2022/04/06 08:57:14;;;;;;;15.07;10.53;;;11.80;1.00;;;;;;6288175;28;20305;-58
2022/04/06 09:00:18;;;;;;;13.33;11.07;;;11.80;1.00;;;;;;6279600;28;20237;-57
2022/04/06 09:03:23;;;;;;;14.03;9.73;;;11.80;1.00;;;;;;6288837;28;20236;-58
2022/04/06 09:06:29;;;;;;;10.60;9.50;;;11.90;1.00;;;;;;6278513;28;20252;-57
2022/04/06 09:09:32;;;;;;;11.20;9.07;;;11.90;1.00;;;;;;6279585;28;20468;-56
2022/04/06 09:12:35;;;;;;;10.17;9.03;;;12.10;1.00;;;;;;6280171;28;20710;-57
2022/04/06 09:15:38;;;;;;;10.90;9.80;;;12.10;1.00;;;;;;6289823;28;20240;-56
2022/04/06 09:18:44;;;;;;;10.70;8.87;;;12.20;1.00;;;;;;6281989;28;20415;-58
2022/04/06 09:21:47;;;;;;;15.93;9.33;;;12.20;1.00;;;;;;6276281;28;20637;-57
2022/04/06 09:24:57;;;;;;;10.17;9.17;;;12.20;1.00;;;;;;6282679;28;20229;-57
2022/04/06 09:28:06;;;;;;;9.67;8.77;;;12.20;1.00;;;;;;6291291;28;20489;-58
2022/04/06 09:31:09;;;;;;;13.03;9.47;;;12.30;1.00;;;;;;6291617;28;20241;-57
2022/04/06 09:34:13;;;;;;;9.83;8.60;;;12.40;1.00;;;;;;6291480;28;20859;-57
2022/04/06 09:37:23;;;;;;;12.77;9.33;;;12.50;1.00;;;;;;6288017;28;20278;-58
2022/04/06 09:40:30;;;;;;;10.70;9.23;;;12.50;1.00;;;;;;6282259;28;20838;-56
2022/04/06 09:43:34;;;;;;;15.53;9.60;;;12.60;1.00;;;;;;6288638;28;20233;-58
2022/04/06 09:50:10;;;;;;;14.40;9.03;;;12.80;1.00;;;;;;6280263;28;20230;-57
2022/04/06 09:53:16;;;;;;;9.40;8.33;;;12.70;1.00;;;;;;6286660;28;20311;-58
2022/04/06 09:56:19;;;;;;;10.17;9.00;;;12.70;1.00;;;;;;6284038;28;20233;-58
2022/04/06 09:59:22;;;;;;;10.33;8.77;;;12.70;1.00;;;;;;6283804;28;20312;-58
2022/04/06 10:02:25;;;;;;;14.13;9.70;;;12.50;1.00;;;;;;6278776;28;20542;-58
2022/04/06 10:05:31;;;;;;;10.80;9.03;;;12.50;1.00;;;;;;6290217;28;20327;-58
2022/04/06 10:08:34;;;;;;;10.60;9.40;;;12.50;1.00;;;;;;6286698;28;20379;-57
2022/04/06 10:11:39;;;;;;;11.27;9.43;;;12.50;1.00;;;;;;6282592;28;20334;-57
2022/04/06 10:14:42;;;;;;;14.10;9.30;;;12.40;1.00;;;;;;6282027;28;20274;-59
2022/04/06 10:17:45;;;;;;;11.33;9.63;;;12.50;1.00;;;;;;6285745;28;20577;-57
2022/04/06 10:20:55;;;;;;;13.17;10.03;;;12.50;1.00;;;;;;6278470;28;20302;-58
2022/04/06 10:24:08;;;;;;;11.37;10.30;;;12.50;1.00;;;;;;6283000;28;20690;-57
2022/04/06 10:27:19;;;;;;;13.40;10.13;;;12.40;1.00;;;;;;6283728;28;20367;-57
2022/04/06 10:30:23;;;;;;;12.63;10.03;;;12.30;1.00;;;;;;6287065;28;20309;-57
2022/04/06 10:33:26;;;;;;;12.47;9.70;;;12.30;1.00;;;;;;6287722;28;20417;-58
2022/04/06 10:36:30;;;;;;;11.13;9.90;;;12.20;1.00;;;;;;6284732;28;20944;-58
2022/04/06 10:39:34;;;;;;;11.37;9.93;;;12.10;1.00;;;;;;6277223;28;20278;-56
2022/04/06 10:42:39;;;;;;;13.93;9.77;;;12.20;1.00;;;;;;6273432;28;20721;-57
2022/04/06 10:45:42;;;;;;;9.77;8.50;;;12.30;1.00;;;;;;6265769;28;20281;-58
2022/04/06 10:48:57;;;;;;;10.23;9.23;;;12.40;1.00;;;;;;6261913;28;20237;-58
2022/04/06 10:52:18;;;;;;;13.33;9.37;;;12.50;1.00;;;;;;6257856;28;20447;-57
2022/04/06 10:55:22;;;;;;;12.97;8.47;;;12.70;1.00;;;;;;6265668;28;20262;-58
2022/04/06 10:58:26;;;;;;;10.77;7.87;;;12.80;1.00;;;;;;6264994;28;20242;-58
2022/04/06 11:01:30;;;;;;;9.23;8.20;;;12.90;1.00;;;;;;6262561;28;20349;-58
2022/04/06 11:04:39;;;;;;;13.60;9.37;;;13.00;1.00;;;;;;6279484;28;20238;-58
2022/04/06 11:11:37;;;;;;;8.43;7.53;;;13.30;1.00;;;;;;6264331;28;20298;-57
2022/04/06 11:14:41;;;;;;;8.53;7.83;;;13.10;1.00;;;;;;6261573;28;21082;-58
2022/04/06 11:17:45;;;;;;;8.70;8.10;;;13.00;1.00;;;;;;6269948;28;20260;-58
2022/04/06 11:20:47;;;;;;;9.40;8.47;;;13.00;1.00;;;;;;6273287;28;20320;-58
2022/04/06 11:23:52;;;;;;;10.63;8.37;;;12.80;1.00;;;;;;6270507;28;20321;-57
2022/04/06 11:26:55;;;;;;;9.23;8.40;;;12.70;1.00;;;;;;6266012;28;20252;-57
2022/04/06 11:30:03;;;;;;;9.23;8.27;;;12.70;1.00;;;;;;6254377;28;20713;-57
2022/04/06 11:33:06;;;;;;;11.30;8.37;;;12.60;1.00;;;;;;6263001;28;20721;-57
2022/04/06 11:36:13;;;;;;;10.27;8.27;;;12.40;1.00;;;;;;6260902;28;20307;-57
2022/04/06 11:39:17;;;;;;;11.80;8.97;;;12.40;1.00;;;;;;6263734;28;20718;-57
2022/04/06 11:42:21;;;;;;;13.23;8.83;;;12.30;1.00;;;;;;6259799;28;20509;-58
2022/04/06 11:45:25;;;;;;;9.40;8.50;;;12.30;1.00;;;;;;6273729;28;20370;-58
2022/04/06 11:48:39;;;;;;;10.30;8.40;;;12.30;1.00;;;;;;6261917;28;20261;-56
2022/04/06 11:51:44;;;;;;;14.20;8.03;;;12.20;1.00;;;;;;6260164;28;20512;-57
2022/04/06 11:54:52;;;;;;;12.37;10.03;;;12.20;1.00;;;;;;6259955;28;20237;-57
2022/04/06 11:57:56;;;;;;;13.80;9.80;;;12.10;1.00;;;;;;6268062;28;20540;-58
2022/04/06 12:01:00;;;;;;;10.27;9.37;;;12.10;1.00;;;;;;6269098;28;20323;-58
2022/04/06 12:04:13;;;;;;;10.67;9.57;;;12.10;1.00;;;;;;6262897;28;20260;-57
2022/04/06 12:07:20;;;;;;;10.87;8.77;;;12.00;1.00;;;;;;6265244;28;20254;-57
2022/04/06 12:10:24;;;;;;;10.17;9.13;;;12.00;1.00;;;;;;6261057;28;20368;-57
2022/04/06 12:13:30;;;;;;;9.90;8.73;;;12.00;1.00;;;;;;6259369;28;20773;-57
2022/04/06 12:16:34;;;;;;;9.50;8.73;;;12.00;1.00;;;;;;6260926;28;20314;-58
2022/04/06 12:19:37;;;;;;;14.80;9.63;;;12.00;1.00;;;;;;6257883;28;20238;-58
2022/04/06 12:22:39;;;;;;;9.83;8.70;;;12.00;1.00;;;;;;6272043;28;20371;-57
2022/04/06 12:25:44;;;;;;;11.93;8.77;;;12.00;1.00;;;;;;6263283;28;20319;-57
2022/04/06 12:28:48;;;;;;;10.73;8.50;;;12.00;1.00;;;;;;6253168;28;20230;-57
2022/04/06 12:31:53;;;;;;;11.90;8.17;;;12.00;1.00;;;;;;6277131;28;20312;-57
2022/04/06 12:34:56;;;;;;;7.90;7.10;;;11.90;1.00;;;;;;6289176;28;20321;-56
2022/04/06 12:37:58;;;;;;;9.50;8.27;;;12.00;1.00;;;;;;6281199;28;20713;-56
2022/04/06 12:41:07;;;;;;;8.90;8.20;;;12.00;1.00;;;;;;6290494;28;20745;-58
2022/04/06 12:44:23;;;;;;;11.33;8.73;;;11.90;1.00;;;;;;6282317;28;20298;-57
2022/04/06 12:47:26;;;;;;;7.93;7.37;;;12.00;1.00;;;;;;6285954;28;20232;-58
2022/04/06 12:50:37;;;;;;;8.63;7.60;;;12.00;1.00;;;;;;6288853;28;20295;-58
2022/04/06 12:53:46;;;;;;;9.70;7.47;;;11.80;1.00;;;;;;6283586;28;20363;-57
2022/04/06 12:57:10;;;;;;;8.63;7.63;;;12.00;1.00;;;;;;6284016;28;20234;-57
2022/04/06 13:00:21;;;;;;;11.73;8.10;;;12.10;1.00;;;;;;6288995;28;20279;-57
2022/04/06 13:03:25;;;;;;;11.60;7.40;;;12.00;1.00;;;;;;6272658;28;20799;-57
2022/04/06 13:06:29;;;;;;;9.30;7.50;;;12.20;1.00;;;;;;6292707;28;20240;-58
2022/04/06 13:09:31;;;;;;;9.23;7.63;;;12.30;1.00;;;;;;6292263;28;20660;-57
2022/04/06 13:12:37;;;;;;;8.70;7.80;;;12.50;1.00;;;;;;6276314;28;20238;-57
2022/04/06 13:15:40;;;;;;;7.80;7.00;;;12.70;1.00;;;;;;6289460;28;20324;-57
2022/04/06 13:18:43;;;;;;;7.57;6.87;;;12.90;1.00;;;;;;6290461;28;20542;-58
2022/04/06 13:21:45;;;;;;;8.33;7.53;;;12.70;1.00;;;;;;6283965;28;20375;-57
2022/04/06 13:24:48;;;;;;;7.70;7.00;;;12.50;1.00;;;;;;6286963;28;20872;-58
2022/04/06 13:27:52;;;;;;;7.93;7.20;;;12.60;1.00;;;;;;6283415;28;20287;-57
2022/04/06 13:30:57;;;;;;;8.63;7.73;;;12.40;1.00;;;;;;6289471;28;20398;-57
2022/04/06 13:34:00;;;;;;;7.23;6.50;;;12.30;1.00;;;;;;6283017;28;20240;-57
2022/04/06 13:37:04;;;;;;;7.67;6.90;;;12.30;1.00;;;;;;6288122;28;20281;-57
2022/04/06 13:40:07;;;;;;;7.97;7.00;;;12.30;1.00;;;;;;6280975;28;20257;-58
2022/04/06 13:43:11;;;;;;;7.93;7.13;;;12.20;1.00;;;;;;6273055;28;20570;-55
2022/04/06 13:46:14;;;;;;;7.53;6.87;;;12.10;1.00;;;;;;6282541;28;20233;-59
2022/04/06 13:49:17;;;;;;;8.77;6.87;;;12.10;1.00;;;;;;6283185;28;20326;-57
2022/04/06 13:52:20;;;;;;;7.40;6.70;;;12.10;1.00;;;;;;6280268;28;20263;-57
2022/04/06 13:55:23;;;;;;;7.97;7.17;;;12.20;1.00;;;;;;6281383;28;20297;-56
2022/04/06 13:58:27;;;;;;;6.80;6.23;;;12.30;1.00;;;;;;6281314;28;20635;-58
2022/04/06 14:01:30;;;;;;;6.80;6.37;;;12.50;1.00;;;;;;6286762;28;20232;-56
2022/04/06 14:04:33;;;;;;;7.00;6.40;;;12.50;1.00;;;;;;6288143;28;20240;-56
2022/04/06 14:07:36;;;;;;;8.13;6.30;;;12.60;1.00;;;;;;6285065;28;20277;-58
2022/04/06 14:10:39;;;;;;;6.77;6.27;;;12.70;1.00;;;;;;6278685;28;20477;-56
2022/04/06 14:13:43;;;;;;;8.60;6.87;;;12.60;1.00;;;;;;6277633;28;20233;-56
2022/04/06 14:16:46;;;;;;;9.40;7.20;;;12.40;1.00;;;;;;6287991;28;20252;-58
2022/04/06 14:19:49;;;;;;;7.13;6.63;;;12.40;1.00;;;;;;6282696;28;20225;-57
2022/04/06 14:22:52;;;;;;;7.93;6.87;;;12.40;1.00;;;;;;6284693;28;20233;-57
2022/04/06 14:25:55;;;;;;;8.13;6.77;;;12.40;1.00;;;;;;6285608;28;20301;-57
2022/04/06 14:28:59;;;;;;;7.47;6.97;;;12.40;1.00;;;;;;6278419;28;20332;-57
2022/04/06 14:32:01;;;;;;;7.67;6.93;;;12.40;1.00;;;;;;6284025;28;20230;-57
2022/04/06 14:35:05;;;;;;;7.50;6.90;;;12.40;1.00;;;;;;6282252;28;20533;-57
2022/04/06 14:38:07;;;;;;;7.50;6.97;;;12.40;1.00;;;;;;6287608;28;20243;-57
2022/04/06 14:41:10;;;;;;;7.47;6.97;;;12.30;1.00;;;;;;6283338;28;20233;-57
2022/04/06 14:44:14;;;;;;;8.40;7.60;;;12.30;1.00;;;;;;6290831;28;20386;-56
2022/04/06 14:47:17;;;;;;;8.97;8.10;;;12.30;1.00;;;;;;6283347;28;20371;-57
2022/04/06 14:50:21;;;;;;;8.97;8.27;;;12.20;1.00;;;;;;6285719;28;20234;-57
2022/04/06 14:53:24;;;;;;;8.63;7.77;;;12.20;1.00;;;;;;6287343;28;20245;-56
2022/04/06 14:56:26;;;;;;;8.53;7.93;;;12.20;1.00;;;;;;6286323;28;20237;-58
2022/04/06 14:59:31;;;;;;;8.63;7.90;;;12.20;1.00;;;;;;6289533;28;20327;-57
2022/04/06 15:02:34;;;;;;;9.27;8.27;;;12.20;1.00;;;;;;6275790;28;20627;-56
2022/04/06 15:05:37;;;;;;;9.10;8.20;;;12.20;1.00;;;;;;6279993;28;20244;-56
2022/04/06 15:08:40;;;;;;;8.47;7.73;;;12.10;1.00;;;;;;6286486;28;20473;-57
2022/04/06 15:11:43;;;;;;;8.53;7.73;;;12.30;1.00;;;;;;6283748;28;20641;-57
2022/04/06 15:14:47;;;;;;;8.13;7.63;;;12.30;1.00;;;;;;6281693;28;20591;-57
2022/04/06 15:17:50;;;;;;;10.60;7.90;;;12.40;1.00;;;;;;6284379;28;20855;-55
2022/04/06 15:20:55;;;;;;;8.03;7.43;;;12.30;1.00;;;;;;6284356;28;20320;-57
2022/04/06 15:23:57;;;;;;;8.10;7.40;;;12.30;1.00;;;;;;6292120;28;20762;-56
2022/04/06 15:27:00;;;;;;;10.40;7.40;;;12.30;1.00;;;;;;6282416;28;20448;-58
2022/04/06 15:30:08;;;;;;;7.07;6.67;;;12.40;1.00;;;;;;6280833;28;20240;-58
2022/04/06 15:33:11;;;;;;;7.20;6.50;;;12.30;1.00;;;;;;6283885;28;20714;-57
2022/04/06 15:39:35;;;;;;;8.10;6.00;;;12.40;1.00;;;;;;6280478;28;20326;-58
2022/04/06 15:42:37;;;;;;;6.00;5.60;;;12.40;1.00;;;;;;6283546;28;22604;-55
2022/04/06 15:45:41;;;;;;;6.33;5.70;;;12.30;1.00;;;;;;6282468;28;20935;-56
2022/04/06 15:48:44;;;;;;;6.00;5.60;;;12.20;1.00;;;;;;6283099;28;20274;-56
2022/04/06 15:51:47;;;;;;;7.90;5.97;;;12.20;1.00;;;;;;6280103;28;20700;-56
2022/04/06 15:54:51;;;;;;;11.33;5.80;;;12.20;1.00;;;;;;6280677;28;20670;-57
2022/04/06 15:57:55;;;;;;;6.23;5.50;;;12.20;1.00;;;;;;6282827;28;20267;-57
2022/04/06 16:01:00;;;;;;;7.90;5.53;;;12.10;1.00;;;;;;6285452;28;20393;-57
2022/04/06 16:04:03;;;;;;;6.23;5.67;;;12.30;1.00;;;;;;6280050;28;20241;-56
2022/04/06 16:07:07;;;;;;;5.80;5.23;;;12.30;1.00;;;;;;6282053;28;20289;-57
2022/04/06 16:10:10;;;;;;;5.73;5.10;;;12.30;1.00;;;;;;6284169;28;20225;-57
2022/04/06 16:13:13;;;;;;;5.57;5.07;;;12.30;1.00;;;;;;6289682;28;20725;-56
2022/04/06 16:16:23;;;;;;;5.60;4.87;;;12.30;1.00;;;;;;6278179;28;20265;-56